Terminal Aerodrome Forecast
Issued by NWS

Home | Current Version | Previous Version | Text Only | Print | Product List | Glossary On
Versions: 1 2 3 4 5 6 7 8 9 10 11 12 13 14 15 16 17 18 19 20
000
FTAK31 PANC 042030 AAA
TAFADL
TAF AMD
PADL 042030Z 0421/0518 06010G18KT P6SM -SHRA SCT025 OVC035
      TEMPO 0421/0424 BKN025
     FM050400 05008KT P6SM VCSH SCT035 BKN050
     FM051000 01009KT P6SM SCT080 BKN120=

USA.gov is the U.S. government's official web portal to all federal, state and local government web resources and services.